sensor_id;sensor_type;location;lat;lon;timestamp;pressure;altitude;pressure_sealevel;temperature;humidity
51293;BME280;37377;45.186;9.778;2023-12-07T00:01:40;101302.13;;;1.62;81.18
51293;BME280;37377;45.186;9.778;2023-12-07T00:04:20;101309.44;;;1.74;81.31
51293;BME280;37377;45.186;9.778;2023-12-07T00:07:00;101313.41;;;1.84;80.13
51293;BME280;37377;45.186;9.778;2023-12-07T00:09:27;101311.06;;;1.77;80.02
51293;BME280;37377;45.186;9.778;2023-12-07T00:11:57;101319.06;;;1.70;80.32
51293;BME280;37377;45.186;9.778;2023-12-07T00:14:51;101324.47;;;1.63;79.43
51293;BME280;37377;45.186;9.778;2023-12-07T00:17:33;101317.56;;;1.63;80.19
51293;BME280;37377;45.186;9.778;2023-12-07T00:20:23;101317.63;;;1.62;80.85
51293;BME280;37377;45.186;9.778;2023-12-07T00:23:00;101318.41;;;1.64;79.98
51293;BME280;37377;45.186;9.778;2023-12-07T00:25:37;101321.88;;;1.63;79.78
51293;BME280;37377;45.186;9.778;2023-12-07T00:28:07;101337.38;;;1.63;80.43
51293;BME280;37377;45.186;9.778;2023-12-07T00:30:55;101338.09;;;1.66;79.91
51293;BME280;37377;45.186;9.778;2023-12-07T00:34:03;101331.38;;;1.62;79.53
51293;BME280;37377;45.186;9.778;2023-12-07T00:42:00;101344.16;;;1.65;79.30
51293;BME280;37377;45.186;9.778;2023-12-07T00:45:13;101341.34;;;1.73;79.96
51293;BME280;37377;45.186;9.778;2023-12-07T00:47:58;101340.75;;;1.65;79.47
51293;BME280;37377;45.186;9.778;2023-12-07T00:50:40;101333.34;;;1.54;78.94
51293;BME280;37377;45.186;9.778;2023-12-07T00:53:26;101330.91;;;1.50;80.10
51293;BME280;37377;45.186;9.778;2023-12-07T00:56:07;101334.13;;;1.30;80.46
51293;BME280;37377;45.186;9.778;2023-12-07T00:58:56;101325.38;;;1.35;80.47
51293;BME280;37377;45.186;9.778;2023-12-07T01:01:32;101324.81;;;1.52;80.05
51293;BME280;37377;45.186;9.778;2023-12-07T01:04:05;101334.63;;;1.67;80.19
51293;BME280;37377;45.186;9.778;2023-12-07T01:06:46;101339.53;;;1.75;79.49
51293;BME280;37377;45.186;9.778;2023-12-07T01:09:30;101343.50;;;1.85;79.39
51293;BME280;37377;45.186;9.778;2023-12-07T01:12:29;101334.06;;;1.84;79.46
51293;BME280;37377;45.186;9.778;2023-12-07T01:15:07;101340.03;;;1.86;79.06
51293;BME280;37377;45.186;9.778;2023-12-07T01:18:41;101353.53;;;1.69;79.08
51293;BME280;37377;45.186;9.778;2023-12-07T01:22:09;101347.22;;;1.77;79.38
51293;BME280;37377;45.186;9.778;2023-12-07T01:25:52;101353.22;;;1.79;79.39
51293;BME280;37377;45.186;9.778;2023-12-07T01:29:07;101354.38;;;1.95;78.72
51293;BME280;37377;45.186;9.778;2023-12-07T01:31:45;101352.28;;;2.06;78.50
51293;BME280;37377;45.186;9.778;2023-12-07T01:34:18;101358.22;;;2.08;78.30
51293;BME280;37377;45.186;9.778;2023-12-07T01:36:50;101352.56;;;1.72;78.74
51293;BME280;37377;45.186;9.778;2023-12-07T01:39:31;101354.59;;;1.89;78.11
51293;BME280;37377;45.186;9.778;2023-12-07T01:46:50;101357.78;;;1.70;78.82
51293;BME280;37377;45.186;9.778;2023-12-07T01:49:52;101357.97;;;1.64;78.73
51293;BME280;37377;45.186;9.778;2023-12-07T01:52:38;101354.44;;;1.67;78.33
51293;BME280;37377;45.186;9.778;2023-12-07T01:55:43;101372.31;;;1.73;78.62
51293;BME280;37377;45.186;9.778;2023-12-07T01:58:54;101363.63;;;1.76;78.22
51293;BME280;37377;45.186;9.778;2023-12-07T02:01:44;101356.09;;;1.69;78.16
51293;BME280;37377;45.186;9.778;2023-12-07T02:04:24;101362.25;;;1.65;78.02
51293;BME280;37377;45.186;9.778;2023-12-07T02:07:39;101353.59;;;1.66;77.98
51293;BME280;37377;45.186;9.778;2023-12-07T02:11:08;101347.03;;;1.56;78.03
51293;BME280;37377;45.186;9.778;2023-12-07T02:14:01;101342.66;;;1.60;77.65
51293;BME280;37377;45.186;9.778;2023-12-07T02:16:45;101343.50;;;1.60;78.11
51293;BME280;37377;45.186;9.778;2023-12-07T02:24:14;101348.69;;;1.59;77.75
51293;BME280;37377;45.186;9.778;2023-12-07T02:27:44;101354.56;;;1.64;78.06
51293;BME280;37377;45.186;9.778;2023-12-07T02:31:07;101352.81;;;1.64;78.13
51293;BME280;37377;45.186;9.778;2023-12-07T02:33:39;101350.94;;;1.69;78.16
51293;BME280;37377;45.186;9.778;2023-12-07T02:37:17;101358.69;;;1.69;77.61
51293;BME280;37377;45.186;9.778;2023-12-07T02:40:09;101357.28;;;1.59;77.00
51293;BME280;37377;45.186;9.778;2023-12-07T02:42:58;101358.56;;;1.46;77.78
51293;BME280;37377;45.186;9.778;2023-12-07T02:45:32;101363.84;;;1.43;77.52
51293;BME280;37377;45.186;9.778;2023-12-07T02:48:07;101360.53;;;1.38;77.56
51293;BME280;37377;45.186;9.778;2023-12-07T02:50:43;101365.66;;;1.39;77.59
51293;BME280;37377;45.186;9.778;2023-12-07T02:53:40;101373.56;;;1.35;77.43
51293;BME280;37377;45.186;9.778;2023-12-07T02:56:07;101359.69;;;1.37;78.31
51293;BME280;37377;45.186;9.778;2023-12-07T02:58:42;101363.69;;;1.20;78.83
51293;BME280;37377;45.186;9.778;2023-12-07T03:01:11;101363.75;;;1.18;78.46
51293;BME280;37377;45.186;9.778;2023-12-07T03:03:49;101358.72;;;1.13;77.95
51293;BME280;37377;45.186;9.778;2023-12-07T03:06:20;101357.03;;;1.12;78.70
51293;BME280;37377;45.186;9.778;2023-12-07T03:09:11;101356.09;;;1.15;78.56
51293;BME280;37377;45.186;9.778;2023-12-07T03:12:10;101359.28;;;1.23;78.36
51293;BME280;37377;45.186;9.778;2023-12-07T03:15:13;101351.28;;;1.31;77.53
51293;BME280;37377;45.186;9.778;2023-12-07T03:18:02;101354.72;;;1.31;77.48
51293;BME280;37377;45.186;9.778;2023-12-07T03:20:34;101361.00;;;1.24;77.21
51293;BME280;37377;45.186;9.778;2023-12-07T03:23:01;101366.88;;;1.28;77.69
51293;BME280;37377;45.186;9.778;2023-12-07T03:25:40;101363.78;;;1.17;77.91
51293;BME280;37377;45.186;9.778;2023-12-07T03:28:32;101367.28;;;1.16;77.40
51293;BME280;37377;45.186;9.778;2023-12-07T03:31:22;101367.22;;;1.17;77.72
51293;BME280;37377;45.186;9.778;2023-12-07T03:34:10;101374.63;;;1.28;77.53
51293;BME280;37377;45.186;9.778;2023-12-07T03:36:54;101370.34;;;1.27;77.80
51293;BME280;37377;45.186;9.778;2023-12-07T03:40:03;101366.09;;;1.26;77.48
51293;BME280;37377;45.186;9.778;2023-12-07T03:42:41;101373.84;;;1.26;77.32
51293;BME280;37377;45.186;9.778;2023-12-07T03:45:29;101367.16;;;1.19;77.29
51293;BME280;37377;45.186;9.778;2023-12-07T03:48:00;101369.84;;;1.16;77.71
51293;BME280;37377;45.186;9.778;2023-12-07T03:50:30;101376.53;;;1.21;78.04
51293;BME280;37377;45.186;9.778;2023-12-07T03:53:08;101380.78;;;1.24;77.54
51293;BME280;37377;45.186;9.778;2023-12-07T03:55:55;101378.06;;;1.28;76.77
51293;BME280;37377;45.186;9.778;2023-12-07T04:01:46;101378.72;;;1.07;76.96
51293;BME280;37377;45.186;9.778;2023-12-07T04:04:13;101386.66;;;0.99;76.52
51293;BME280;37377;45.186;9.778;2023-12-07T04:07:06;101395.59;;;0.88;77.30
51293;BME280;37377;45.186;9.778;2023-12-07T04:09:34;101407.56;;;0.90;77.64
51293;BME280;37377;45.186;9.778;2023-12-07T04:12:30;101409.00;;;1.00;77.68
51293;BME280;37377;45.186;9.778;2023-12-07T04:15:18;101418.28;;;1.06;77.63
51293;BME280;37377;45.186;9.778;2023-12-07T04:17:54;101414.72;;;1.10;76.74
51293;BME280;37377;45.186;9.778;2023-12-07T04:20:46;101416.47;;;1.09;76.93
51293;BME280;37377;45.186;9.778;2023-12-07T04:23:43;101415.03;;;0.99;77.41
51293;BME280;37377;45.186;9.778;2023-12-07T04:26:14;101416.78;;;0.99;77.19
51293;BME280;37377;45.186;9.778;2023-12-07T04:28:42;101421.06;;;1.00;77.21
51293;BME280;37377;45.186;9.778;2023-12-07T04:31:12;101419.16;;;1.05;77.64
51293;BME280;37377;45.186;9.778;2023-12-07T04:33:39;101429.25;;;1.12;77.03
51293;BME280;37377;45.186;9.778;2023-12-07T04:36:06;101430.09;;;1.13;77.04
51293;BME280;37377;45.186;9.778;2023-12-07T04:38:34;101435.47;;;1.05;77.08
51293;BME280;37377;45.186;9.778;2023-12-07T04:41:01;101436.22;;;1.10;77.15
51293;BME280;37377;45.186;9.778;2023-12-07T04:43:48;101431.25;;;1.03;76.98
51293;BME280;37377;45.186;9.778;2023-12-07T04:46:16;101426.00;;;1.07;76.93
51293;BME280;37377;45.186;9.778;2023-12-07T04:48:47;101424.94;;;1.13;77.28
51293;BME280;37377;45.186;9.778;2023-12-07T04:51:14;101431.78;;;1.14;76.89
51293;BME280;37377;45.186;9.778;2023-12-07T04:53:42;101442.06;;;0.86;77.80
51293;BME280;37377;45.186;9.778;2023-12-07T04:56:09;101440.06;;;0.96;77.63
51293;BME280;37377;45.186;9.778;2023-12-07T04:58:40;101438.84;;;0.78;78.27
51293;BME280;37377;45.186;9.778;2023-12-07T05:01:07;101439.78;;;0.75;78.34
51293;BME280;37377;45.186;9.778;2023-12-07T05:03:34;101435.22;;;0.85;78.42
51293;BME280;37377;45.186;9.778;2023-12-07T05:06:01;101440.22;;;0.91;78.20
51293;BME280;37377;45.186;9.778;2023-12-07T05:08:29;101441.91;;;0.92;78.24
51293;BME280;37377;45.186;9.778;2023-12-07T05:10:57;101437.47;;;0.97;77.41
51293;BME280;37377;45.186;9.778;2023-12-07T05:13:27;101434.22;;;0.91;78.06
51293;BME280;37377;45.186;9.778;2023-12-07T05:15:54;101438.44;;;0.93;77.62
51293;BME280;37377;45.186;9.778;2023-12-07T05:18:21;101440.28;;;0.88;77.61
51293;BME280;37377;45.186;9.778;2023-12-07T05:20:51;101448.94;;;0.85;77.49
51293;BME280;37377;45.186;9.778;2023-12-07T05:23:23;101441.22;;;0.85;77.86
51293;BME280;37377;45.186;9.778;2023-12-07T05:25:50;101448.09;;;0.85;77.54
51293;BME280;37377;45.186;9.778;2023-12-07T05:28:17;101445.63;;;0.82;77.36
51293;BME280;37377;45.186;9.778;2023-12-07T05:30:44;101449.03;;;0.82;77.77
51293;BME280;37377;45.186;9.778;2023-12-07T05:33:13;101448.00;;;0.88;77.72
51293;BME280;37377;45.186;9.778;2023-12-07T05:35:40;101452.22;;;0.92;77.38
51293;BME280;37377;45.186;9.778;2023-12-07T05:38:07;101462.63;;;0.89;77.77
51293;BME280;37377;45.186;9.778;2023-12-07T05:40:34;101461.16;;;0.79;77.92
51293;BME280;37377;45.186;9.778;2023-12-07T05:43:02;101470.25;;;0.92;77.98
51293;BME280;37377;45.186;9.778;2023-12-07T05:45:33;101463.97;;;1.02;77.72
51293;BME280;37377;45.186;9.778;2023-12-07T05:48:00;101467.53;;;0.98;77.56
51293;BME280;37377;45.186;9.778;2023-12-07T05:50:27;101463.38;;;0.93;77.50
51293;BME280;37377;45.186;9.778;2023-12-07T05:52:54;101465.09;;;0.92;77.95
51293;BME280;37377;45.186;9.778;2023-12-07T05:55:22;101466.47;;;1.04;76.92
51293;BME280;37377;45.186;9.778;2023-12-07T05:57:49;101470.91;;;1.00;77.14
51293;BME280;37377;45.186;9.778;2023-12-07T06:00:17;101471.78;;;0.99;76.21
51293;BME280;37377;45.186;9.778;2023-12-07T06:02:47;101469.38;;;0.93;76.67
51293;BME280;37377;45.186;9.778;2023-12-07T06:05:15;101480.47;;;0.95;76.03
51293;BME280;37377;45.186;9.778;2023-12-07T06:07:42;101490.34;;;0.81;77.04
51293;BME280;37377;45.186;9.778;2023-12-07T06:10:09;101489.91;;;0.65;77.72
51293;BME280;37377;45.186;9.778;2023-12-07T06:12:36;101491.50;;;0.71;77.99
51293;BME280;37377;45.186;9.778;2023-12-07T06:15:04;101495.50;;;0.81;78.03
51293;BME280;37377;45.186;9.778;2023-12-07T06:17:33;101493.59;;;0.88;77.87
51293;BME280;37377;45.186;9.778;2023-12-07T06:20:01;101493.56;;;0.89;77.95
51293;BME280;37377;45.186;9.778;2023-12-07T06:22:30;101496.59;;;1.03;77.52
51293;BME280;37377;45.186;9.778;2023-12-07T06:24:57;101501.69;;;1.06;77.25
51293;BME280;37377;45.186;9.778;2023-12-07T06:27:24;101506.13;;;1.01;77.39
51293;BME280;37377;45.186;9.778;2023-12-07T06:29:51;101501.66;;;1.08;76.84
51293;BME280;37377;45.186;9.778;2023-12-07T06:32:18;101507.91;;;1.29;76.72
51293;BME280;37377;45.186;9.778;2023-12-07T06:34:46;101507.81;;;1.32;76.66
51293;BME280;37377;45.186;9.778;2023-12-07T06:37:13;101517.72;;;1.18;76.75
51293;BME280;37377;45.186;9.778;2023-12-07T06:39:41;101521.09;;;1.20;76.79
51293;BME280;37377;45.186;9.778;2023-12-07T06:42:08;101516.09;;;1.13;76.53
51293;BME280;37377;45.186;9.778;2023-12-07T06:44:35;101517.06;;;1.09;75.93
51293;BME280;37377;45.186;9.778;2023-12-07T06:47:02;101519.88;;;1.02;76.75
51293;BME280;37377;45.186;9.778;2023-12-07T06:49:31;101530.09;;;1.05;76.12
51293;BME280;37377;45.186;9.778;2023-12-07T06:52:15;101520.59;;;1.05;76.67
51293;BME280;37377;45.186;9.778;2023-12-07T06:54:45;101536.47;;;0.92;77.38
51293;BME280;37377;45.186;9.778;2023-12-07T06:57:15;101541.25;;;1.05;77.01
51293;BME280;37377;45.186;9.778;2023-12-07T06:59:42;101543.44;;;0.88;76.74
51293;BME280;37377;45.186;9.778;2023-12-07T07:02:09;101552.50;;;1.03;77.51
51293;BME280;37377;45.186;9.778;2023-12-07T07:04:39;101550.16;;;1.26;77.28
51293;BME280;37377;45.186;9.778;2023-12-07T07:07:06;101551.41;;;1.42;76.53
51293;BME280;37377;45.186;9.778;2023-12-07T07:09:34;101564.19;;;1.47;76.81
51293;BME280;37377;45.186;9.778;2023-12-07T07:12:05;101555.81;;;1.39;76.81
51293;BME280;37377;45.186;9.778;2023-12-07T07:14:32;101557.84;;;1.57;76.21
51293;BME280;37377;45.186;9.778;2023-12-07T07:16:59;101553.75;;;1.80;75.64
51293;BME280;37377;45.186;9.778;2023-12-07T07:19:30;101549.66;;;1.73;76.50
51293;BME280;37377;45.186;9.778;2023-12-07T07:21:58;101551.34;;;2.56;74.29
51293;BME280;37377;45.186;9.778;2023-12-07T07:24:25;101565.47;;;2.46;73.39
51293;BME280;37377;45.186;9.778;2023-12-07T07:26:55;101567.34;;;2.67;73.36
51293;BME280;37377;45.186;9.778;2023-12-07T07:29:23;101576.47;;;3.04;74.44
51293;BME280;37377;45.186;9.778;2023-12-07T07:31:55;101580.59;;;3.80;71.04
51293;BME280;37377;45.186;9.778;2023-12-07T07:34:34;101579.72;;;4.46;68.41
51293;BME280;37377;45.186;9.778;2023-12-07T07:37:11;101583.13;;;4.89;66.75
51293;BME280;37377;45.186;9.778;2023-12-07T07:39:44;101586.38;;;5.15;63.81
51293;BME280;37377;45.186;9.778;2023-12-07T07:42:11;101595.09;;;5.72;62.99
51293;BME280;37377;45.186;9.778;2023-12-07T07:44:44;101600.47;;;6.42;60.03
51293;BME280;37377;45.186;9.778;2023-12-07T07:47:12;101606.53;;;7.29;58.30
51293;BME280;37377;45.186;9.778;2023-12-07T07:49:38;101608.88;;;7.67;56.33
51293;BME280;37377;45.186;9.778;2023-12-07T07:52:06;101615.97;;;8.12;54.77
51293;BME280;37377;45.186;9.778;2023-12-07T07:54:39;101618.75;;;7.93;53.96
51293;BME280;37377;45.186;9.778;2023-12-07T07:57:20;101617.88;;;7.11;56.47
51293;BME280;37377;45.186;9.778;2023-12-07T07:59:48;101624.88;;;7.61;54.31
51293;BME280;37377;45.186;9.778;2023-12-07T08:02:15;101627.09;;;8.00;53.82
51293;BME280;37377;45.186;9.778;2023-12-07T08:04:43;101634.50;;;8.23;53.45
51293;BME280;37377;45.186;9.778;2023-12-07T08:07:11;101638.63;;;8.28;52.79
51293;BME280;37377;45.186;9.778;2023-12-07T08:09:41;101634.47;;;8.71;51.14
51293;BME280;37377;45.186;9.778;2023-12-07T08:12:08;101645.69;;;9.03;50.57
51293;BME280;37377;45.186;9.778;2023-12-07T08:14:38;101645.38;;;9.66;49.69
51293;BME280;37377;45.186;9.778;2023-12-07T08:17:05;101636.88;;;10.59;46.32
51293;BME280;37377;45.186;9.778;2023-12-07T08:19:32;101634.16;;;10.88;46.63
51293;BME280;37377;45.186;9.778;2023-12-07T08:21:59;101633.56;;;11.86;43.74
51293;BME280;37377;45.186;9.778;2023-12-07T08:24:26;101636.44;;;13.14;40.45
51293;BME280;37377;45.186;9.778;2023-12-07T08:26:53;101629.69;;;13.56;39.25
51293;BME280;37377;45.186;9.778;2023-12-07T08:29:20;101639.75;;;13.73;39.13
51293;BME280;37377;45.186;9.778;2023-12-07T08:31:47;101635.81;;;13.56;40.19
51293;BME280;37377;45.186;9.778;2023-12-07T08:34:14;101639.19;;;12.53;42.16
51293;BME280;37377;45.186;9.778;2023-12-07T08:36:46;101644.28;;;14.05;38.59
51293;BME280;37377;45.186;9.778;2023-12-07T08:39:13;101644.56;;;14.45;37.99
51293;BME280;37377;45.186;9.778;2023-12-07T08:41:40;101647.00;;;14.26;37.85
51293;BME280;37377;45.186;9.778;2023-12-07T08:44:07;101645.50;;;15.08;36.26
51293;BME280;37377;45.186;9.778;2023-12-07T08:46:34;101657.53;;;14.26;37.80
51293;BME280;37377;45.186;9.778;2023-12-07T08:49:01;101659.63;;;14.54;36.84
51293;BME280;37377;45.186;9.778;2023-12-07T08:51:28;101659.03;;;14.39;37.81
51293;BME280;37377;45.186;9.778;2023-12-07T08:53:55;101664.72;;;14.12;37.40
51293;BME280;37377;45.186;9.778;2023-12-07T08:56:23;101666.84;;;14.84;36.22
51293;BME280;37377;45.186;9.778;2023-12-07T08:58:50;101676.78;;;14.60;36.25
51293;BME280;37377;45.186;9.778;2023-12-07T09:01:18;101673.63;;;13.67;37.18
51293;BME280;37377;45.186;9.778;2023-12-07T09:03:58;101677.19;;;14.10;36.86
51293;BME280;37377;45.186;9.778;2023-12-07T09:06:25;101686.75;;;14.45;37.00
51293;BME280;37377;45.186;9.778;2023-12-07T09:08:52;101681.88;;;13.16;39.74
51293;BME280;37377;45.186;9.778;2023-12-07T09:11:19;101683.66;;;12.32;40.65
51293;BME280;37377;45.186;9.778;2023-12-07T09:13:46;101688.16;;;11.68;42.46
51293;BME280;37377;45.186;9.778;2023-12-07T09:16:13;101703.72;;;11.06;43.87
51293;BME280;37377;45.186;9.778;2023-12-07T09:18:42;101706.03;;;9.73;46.97
51293;BME280;37377;45.186;9.778;2023-12-07T09:21:12;101693.75;;;9.59;47.48
51293;BME280;37377;45.186;9.778;2023-12-07T09:23:41;101700.88;;;9.57;48.04
51293;BME280;37377;45.186;9.778;2023-12-07T09:26:08;101699.09;;;9.57;47.22
51293;BME280;37377;45.186;9.778;2023-12-07T09:28:35;101700.56;;;9.47;48.03
51293;BME280;37377;45.186;9.778;2023-12-07T09:31:03;101697.44;;;9.26;49.34
51293;BME280;37377;45.186;9.778;2023-12-07T09:33:30;101697.41;;;9.85;48.16
51293;BME280;37377;45.186;9.778;2023-12-07T09:35:57;101700.81;;;8.98;50.28
51293;BME280;37377;45.186;9.778;2023-12-07T09:38:24;101695.53;;;8.84;49.56
51293;BME280;37377;45.186;9.778;2023-12-07T09:40:55;101695.88;;;8.78;50.30
51293;BME280;37377;45.186;9.778;2023-12-07T09:43:26;101694.50;;;8.08;52.60
51293;BME280;37377;45.186;9.778;2023-12-07T09:45:54;101691.69;;;7.95;52.92
51293;BME280;37377;45.186;9.778;2023-12-07T09:48:22;101697.19;;;7.90;53.01
51293;BME280;37377;45.186;9.778;2023-12-07T09:50:51;101705.56;;;7.80;53.56
51293;BME280;37377;45.186;9.778;2023-12-07T09:53:19;101704.34;;;9.27;51.05
51293;BME280;37377;45.186;9.778;2023-12-07T09:55:46;101699.59;;;11.02;46.30
51293;BME280;37377;45.186;9.778;2023-12-07T09:58:14;101694.25;;;11.81;45.28
51293;BME280;37377;45.186;9.778;2023-12-07T10:00:57;101688.53;;;12.13;43.75
51293;BME280;37377;45.186;9.778;2023-12-07T10:03:26;101691.50;;;11.57;44.96
51293;BME280;37377;45.186;9.778;2023-12-07T10:05:57;101688.00;;;10.79;46.60
51293;BME280;37377;45.186;9.778;2023-12-07T10:08:30;101673.03;;;9.84;48.42
51293;BME280;37377;45.186;9.778;2023-12-07T10:11:16;101667.69;;;10.00;48.46
51293;BME280;37377;45.186;9.778;2023-12-07T10:13:45;101661.31;;;10.99;46.65
51293;BME280;37377;45.186;9.778;2023-12-07T10:16:14;101654.63;;;10.68;47.15
51293;BME280;37377;45.186;9.778;2023-12-07T10:18:43;101661.72;;;9.55;50.22
51293;BME280;37377;45.186;9.778;2023-12-07T10:21:12;101652.94;;;9.28;49.53
51293;BME280;37377;45.186;9.778;2023-12-07T10:23:42;101658.59;;;8.44;52.44
51293;BME280;37377;45.186;9.778;2023-12-07T10:26:16;101656.13;;;8.10;53.10
51293;BME280;37377;45.186;9.778;2023-12-07T10:28:51;101645.47;;;7.65;54.51
51293;BME280;37377;45.186;9.778;2023-12-07T10:31:22;101644.50;;;7.51;55.15
51293;BME280;37377;45.186;9.778;2023-12-07T10:33:53;101638.19;;;7.04;57.45
51293;BME280;37377;45.186;9.778;2023-12-07T10:36:21;101643.47;;;7.20;57.06
51293;BME280;37377;45.186;9.778;2023-12-07T10:38:48;101633.34;;;7.14;56.90
51293;BME280;37377;45.186;9.778;2023-12-07T10:41:19;101626.78;;;7.07;56.14
51293;BME280;37377;45.186;9.778;2023-12-07T10:44:00;101620.03;;;7.03;56.89
51293;BME280;37377;45.186;9.778;2023-12-07T10:46:32;101619.25;;;7.18;56.16
51293;BME280;37377;45.186;9.778;2023-12-07T10:49:06;101617.13;;;6.92;56.82
51293;BME280;37377;45.186;9.778;2023-12-07T10:51:58;101615.66;;;6.86;57.42
51293;BME280;37377;45.186;9.778;2023-12-07T10:54:50;101604.03;;;7.10;57.46
51293;BME280;37377;45.186;9.778;2023-12-07T10:57:21;101600.34;;;6.97;57.61
51293;BME280;37377;45.186;9.778;2023-12-07T10:59:50;101592.47;;;6.99;57.63
51293;BME280;37377;45.186;9.778;2023-12-07T11:02:20;101590.31;;;7.07;57.26
51293;BME280;37377;45.186;9.778;2023-12-07T11:05:01;101586.78;;;7.08;56.78
51293;BME280;37377;45.186;9.778;2023-12-07T11:07:38;101593.06;;;7.04;57.98
51293;BME280;37377;45.186;9.778;2023-12-07T11:10:14;101580.03;;;7.04;57.96
51293;BME280;37377;45.186;9.778;2023-12-07T11:12:49;101584.25;;;7.06;57.60
51293;BME280;37377;45.186;9.778;2023-12-07T11:15:17;101590.63;;;7.01;57.32
51293;BME280;37377;45.186;9.778;2023-12-07T11:17:54;101586.34;;;7.00;58.63
51293;BME280;37377;45.186;9.778;2023-12-07T11:20:35;101573.75;;;7.08;58.35
51293;BME280;37377;45.186;9.778;2023-12-07T11:23:08;101570.31;;;7.07;58.18
51293;BME280;37377;45.186;9.778;2023-12-07T11:25:37;101572.59;;;6.96;59.33
51293;BME280;37377;45.186;9.778;2023-12-07T11:28:06;101563.81;;;6.99;59.26
51293;BME280;37377;45.186;9.778;2023-12-07T11:31:58;101563.41;;;7.06;59.26
51293;BME280;37377;45.186;9.778;2023-12-07T11:36:08;101566.44;;;7.15;58.45
51293;BME280;37377;45.186;9.778;2023-12-07T11:39:42;101553.50;;;7.13;59.24
51293;BME280;37377;45.186;9.778;2023-12-07T11:42:29;101559.72;;;7.10;59.42
51293;BME280;37377;45.186;9.778;2023-12-07T11:44:59;101555.53;;;7.08;59.25
51293;BME280;37377;45.186;9.778;2023-12-07T11:47:27;101546.41;;;7.32;58.18
51293;BME280;37377;45.186;9.778;2023-12-07T11:50:21;101550.28;;;7.25;58.65
51293;BME280;37377;45.186;9.778;2023-12-07T11:53:54;101564.56;;;7.18;57.85
51293;BME280;37377;45.186;9.778;2023-12-07T11:56:41;101558.72;;;7.13;58.45
51293;BME280;37377;45.186;9.778;2023-12-07T11:59:09;101550.28;;;7.25;58.20
51293;BME280;37377;45.186;9.778;2023-12-07T12:01:46;101549.66;;;7.20;58.83
51293;BME280;37377;45.186;9.778;2023-12-07T12:04:17;101541.53;;;7.26;58.31
51293;BME280;37377;45.186;9.778;2023-12-07T12:06:47;101547.03;;;7.37;58.49
51293;BME280;37377;45.186;9.778;2023-12-07T12:09:25;101548.97;;;7.34;58.58
51293;BME280;37377;45.186;9.778;2023-12-07T12:12:01;101554.25;;;7.15;59.09
51293;BME280;37377;45.186;9.778;2023-12-07T12:14:29;101554.41;;;7.29;58.77
51293;BME280;37377;45.186;9.778;2023-12-07T12:17:00;101548.53;;;7.26;58.73
51293;BME280;37377;45.186;9.778;2023-12-07T12:19:27;101560.38;;;7.31;59.03
51293;BME280;37377;45.186;9.778;2023-12-07T12:22:03;101559.81;;;7.42;59.32
51293;BME280;37377;45.186;9.778;2023-12-07T12:24:35;101565.38;;;7.52;59.09
51293;BME280;37377;45.186;9.778;2023-12-07T12:27:05;101571.78;;;7.62;59.41
51293;BME280;37377;45.186;9.778;2023-12-07T12:29:36;101569.41;;;7.57;59.94
51293;BME280;37377;45.186;9.778;2023-12-07T12:32:08;101571.78;;;7.62;59.84
51293;BME280;37377;45.186;9.778;2023-12-07T12:34:36;101575.16;;;7.64;60.17
51293;BME280;37377;45.186;9.778;2023-12-07T12:37:06;101571.34;;;7.54;61.13
51293;BME280;37377;45.186;9.778;2023-12-07T12:39:34;101576.22;;;7.44;61.47
51293;BME280;37377;45.186;9.778;2023-12-07T12:42:05;101573.59;;;7.44;61.54
51293;BME280;37377;45.186;9.778;2023-12-07T12:44:35;101572.28;;;7.53;61.71
51293;BME280;37377;45.186;9.778;2023-12-07T12:47:08;101571.38;;;7.70;61.11
51293;BME280;37377;45.186;9.778;2023-12-07T12:49:41;101566.31;;;7.82;60.75
51293;BME280;37377;45.186;9.778;2023-12-07T12:52:15;101574.81;;;7.70;60.96
51293;BME280;37377;45.186;9.778;2023-12-07T12:54:46;101576.00;;;7.80;59.99
51293;BME280;37377;45.186;9.778;2023-12-07T12:57:17;101576.53;;;7.87;60.46
51293;BME280;37377;45.186;9.778;2023-12-07T12:59:45;101562.63;;;7.86;59.11
51293;BME280;37377;45.186;9.778;2023-12-07T13:02:12;101555.38;;;7.91;58.63
51293;BME280;37377;45.186;9.778;2023-12-07T13:04:39;101558.50;;;7.98;57.95
51293;BME280;37377;45.186;9.778;2023-12-07T13:07:57;101555.66;;;7.87;58.26
51293;BME280;37377;45.186;9.778;2023-12-07T13:10:45;101556.13;;;7.93;57.95
51293;BME280;37377;45.186;9.778;2023-12-07T13:13:13;101549.25;;;7.92;58.10
51293;BME280;37377;45.186;9.778;2023-12-07T13:15:42;101540.56;;;7.76;58.74
51293;BME280;37377;45.186;9.778;2023-12-07T13:18:09;101525.59;;;7.64;59.73
51293;BME280;37377;45.186;9.778;2023-12-07T13:21:20;101516.09;;;7.63;59.10
51293;BME280;37377;45.186;9.778;2023-12-07T13:23:47;101519.13;;;7.71;59.20
51293;BME280;37377;45.186;9.778;2023-12-07T13:26:18;101526.69;;;7.76;58.76
51293;BME280;37377;45.186;9.778;2023-12-07T13:29:00;101525.19;;;7.72;58.66
51293;BME280;37377;45.186;9.778;2023-12-07T13:31:33;101534.50;;;7.76;59.08
51293;BME280;37377;45.186;9.778;2023-12-07T13:34:11;101530.97;;;7.77;59.06
51293;BME280;37377;45.186;9.778;2023-12-07T13:37:12;101526.78;;;7.74;60.09
51293;BME280;37377;45.186;9.778;2023-12-07T13:40:18;101521.97;;;7.82;59.70
51293;BME280;37377;45.186;9.778;2023-12-07T13:43:09;101532.75;;;7.92;58.79
51293;BME280;37377;45.186;9.778;2023-12-07T13:45:36;101533.59;;;7.92;58.72
51293;BME280;37377;45.186;9.778;2023-12-07T13:48:04;101531.25;;;7.88;58.15
51293;BME280;37377;45.186;9.778;2023-12-07T13:50:33;101526.97;;;7.71;58.30
51293;BME280;37377;45.186;9.778;2023-12-07T13:53:01;101527.81;;;7.72;58.81
51293;BME280;37377;45.186;9.778;2023-12-07T13:55:34;101532.59;;;7.63;58.42
51293;BME280;37377;45.186;9.778;2023-12-07T13:58:03;101540.50;;;7.62;59.02
51293;BME280;37377;45.186;9.778;2023-12-07T14:00:31;101537.91;;;7.62;59.11
51293;BME280;37377;45.186;9.778;2023-12-07T14:02:58;101539.81;;;7.58;59.60
51293;BME280;37377;45.186;9.778;2023-12-07T14:05:25;101543.53;;;7.54;59.09
51293;BME280;37377;45.186;9.778;2023-12-07T14:07:53;101549.81;;;7.50;59.61